Time;durP1;ratioP1;P1;durP2;ratioP2;P2;SDS_P1;SDS_P2;PMS_P1;PMS_P2;Temp;Humidity;BMP_temperature;BMP_pressure;BME280_temperature;BME280_humidity;BME280_pressure;Samples;Min_cycle;Max_cycle;Signal;HPM_P1;HPM_P2
2021/04/28 00:01:20;;;;;;;6.33;3.80;;;;;8.90;100086.00;;;;10527347;28;20671;-73
2021/04/28 00:06:21;;;;;;;4.87;3.67;;;;;8.80;100066.00;;;;10510226;28;20252;-73
2021/04/28 00:11:22;;;;;;;5.83;3.27;;;;;8.70;100078.00;;;;10518449;28;20255;-73
2021/04/28 00:16:24;;;;;;;4.77;3.57;;;;;8.60;100065.00;;;;10544811;28;20587;-73
2021/04/28 00:21:26;;;;;;;5.20;3.70;;;;;8.50;100059.00;;;;10509315;28;20258;-73
2021/04/28 00:26:28;;;;;;;4.93;3.33;;;;;8.40;100057.00;;;;10526639;28;20197;-73
2021/04/28 00:31:37;;;;;;;6.00;3.53;;;;;8.30;100056.00;;;;10545183;28;20277;-73
2021/04/28 00:36:39;;;;;;;6.57;3.30;;;;;8.10;100045.00;;;;10526056;28;20219;-74
2021/04/28 00:41:44;;;;;;;5.37;3.77;;;;;8.00;100043.00;;;;10542499;28;20572;-73
2021/04/28 00:46:46;;;;;;;5.47;3.83;;;;;8.00;100042.00;;;;10524694;28;20751;-73
2021/04/28 00:51:48;;;;;;;5.97;4.20;;;;;7.90;100032.00;;;;10525325;28;20189;-73
2021/04/28 00:56:53;;;;;;;6.33;3.70;;;;;7.80;100030.00;;;;10525363;28;20197;-73
2021/04/28 01:01:56;;;;;;;8.27;4.67;;;;;7.70;100029.00;;;;10541330;28;20197;-73
2021/04/28 01:07:05;;;;;;;8.97;4.23;;;;;7.60;100023.00;;;;10524843;28;20236;-73
2021/04/28 01:12:08;;;;;;;7.07;3.50;;;;;7.50;100015.00;;;;10541513;28;20193;-73
2021/04/28 01:17:10;;;;;;;7.53;3.70;;;;;7.40;100007.00;;;;10507079;28;20283;-73
2021/04/28 01:22:12;;;;;;;5.57;3.90;;;;;7.30;100010.00;;;;10506633;28;20209;-74
2021/04/28 01:27:26;;;;;;;5.40;3.60;;;;;7.20;100000.00;;;;10507062;28;20195;-72
2021/04/28 01:32:27;;;;;;;6.87;3.87;;;;;7.00;99997.00;;;;10472727;28;20793;-73
2021/04/28 01:37:36;;;;;;;4.90;3.77;;;;;6.80;99994.00;;;;10508508;28;20216;-73
2021/04/28 01:42:38;;;;;;;8.77;5.23;;;;;6.70;99998.00;;;;10464927;28;20885;-73
2021/04/28 01:47:40;;;;;;;5.53;3.80;;;;;6.60;99990.00;;;;10480804;28;20201;-72
2021/04/28 01:52:43;;;;;;;8.37;3.73;;;;;6.50;99983.00;;;;10497852;28;20196;-73
2021/04/28 01:57:44;;;;;;;7.23;4.10;;;;;6.40;99989.00;;;;10535432;28;20221;-73
2021/04/28 02:02:53;;;;;;;4.93;3.43;;;;;6.30;99987.00;;;;10506920;28;20209;-73
2021/04/28 02:07:59;;;;;;;5.10;3.87;;;;;6.20;99997.00;;;;10488966;28;20274;-73
2021/04/28 02:13:00;;;;;;;5.10;3.80;;;;;6.00;99993.00;;;;10505195;28;20192;-73
2021/04/28 02:18:07;;;;;;;9.63;4.50;;;;;5.90;99997.00;;;;10505576;28;20648;-73
2021/04/28 02:23:14;;;;;;;5.00;4.30;;;;;5.80;99995.00;;;;10521882;28;20205;-73
2021/04/28 02:28:16;;;;;;;4.87;4.03;;;;;5.70;99990.00;;;;10488146;28;20213;-73
2021/04/28 02:33:27;;;;;;;7.60;4.10;;;;;5.70;99986.00;;;;10520455;28;20181;-72
2021/04/28 02:38:53;;;;;;;7.80;4.33;;;;;5.60;99982.00;;;;10520958;28;20658;-72
2021/04/28 02:44:06;;;;;;;6.07;4.47;;;;;5.60;99967.00;;;;10520863;28;20236;-73
2021/04/28 02:49:15;;;;;;;4.33;3.57;;;;;5.50;99965.00;;;;10504475;28;20655;-73
2021/04/28 02:54:18;;;;;;;9.67;4.50;;;;;5.40;99967.00;;;;10520169;28;20193;-73
2021/04/28 02:59:21;;;;;;;6.07;4.03;;;;;5.40;99950.00;;;;10504101;28;20192;-73
2021/04/28 03:04:23;;;;;;;7.83;4.70;;;;;5.40;99951.00;;;;10520467;28;20571;-73
2021/04/28 03:09:52;;;;;;;7.47;5.10;;;;;5.40;99947.00;;;;10491475;28;20212;-73
2021/04/28 03:14:54;;;;;;;7.13;4.70;;;;;5.50;99942.00;;;;10503814;28;20193;-73
2021/04/28 03:19:58;;;;;;;8.47;5.30;;;;;5.60;99936.00;;;;10521214;28;20215;-73
2021/04/28 03:25:09;;;;;;;8.70;5.13;;;;;5.70;99943.00;;;;10503806;28;20209;-73
2021/04/28 03:30:11;;;;;;;5.50;4.83;;;;;5.70;99931.00;;;;10520027;28;20220;-73
2021/04/28 03:35:13;;;;;;;7.57;4.70;;;;;5.70;99941.00;;;;10520803;28;20185;-73
2021/04/28 03:40:19;;;;;;;8.07;5.10;;;;;5.60;99947.00;;;;10504756;28;20308;-73
2021/04/28 03:45:22;;;;;;;5.90;4.97;;;;;5.40;99938.00;;;;10520224;28;20220;-73
2021/04/28 03:50:24;;;;;;;7.50;4.97;;;;;5.20;99935.00;;;;10503521;28;20192;-73
2021/04/28 03:55:42;;;;;;;6.13;5.53;;;;;5.10;99948.00;;;;10508950;28;20623;-72
2021/04/28 04:00:43;;;;;;;9.50;5.70;;;;;5.00;99955.00;;;;10511030;28;20250;-72
2021/04/28 04:06:05;;;;;;;10.43;5.37;;;;;4.90;99956.00;;;;10529620;28;20209;-72
2021/04/28 04:11:08;;;;;;;12.73;5.73;;;;;4.90;99953.00;;;;10510933;28;20228;-72
2021/04/28 04:16:09;;;;;;;6.83;5.00;;;;;4.90;99950.00;;;;10510690;28;20275;-72
2021/04/28 04:21:11;;;;;;;11.30;5.60;;;;;4.90;99947.00;;;;10511005;28;20280;-72
2021/04/28 04:26:14;;;;;;;9.43;5.50;;;;;4.80;99954.00;;;;10509041;28;20197;-72
2021/04/28 04:31:38;;;;;;;10.90;5.93;;;;;4.80;99955.00;;;;10495186;28;20202;-72
2021/04/28 04:37:06;;;;;;;8.40;6.13;;;;;4.80;99944.00;;;;10463900;28;20194;-72
2021/04/28 04:42:26;;;;;;;7.50;5.90;;;;;4.90;99946.00;;;;10486723;28;20710;-72
2021/04/28 04:47:40;;;;;;;13.37;5.93;;;;;4.90;99943.00;;;;10484567;28;21498;-72
2021/04/28 04:52:42;;;;;;;7.87;5.83;;;;;5.00;99945.00;;;;10540824;28;20189;-72
2021/04/28 04:57:43;;;;;;;7.63;5.57;;;;;5.10;99955.00;;;;10556148;28;20578;-72
2021/04/28 05:02:45;;;;;;;7.57;5.57;;;;;5.40;99956.00;;;;10524063;28;20683;-72
2021/04/28 05:07:46;;;;;;;10.67;5.63;;;;;5.70;99948.00;;;;10484251;28;20226;-72
2021/04/28 05:12:48;;;;;;;7.50;5.77;;;;;6.20;99947.00;;;;10540295;28;20181;-72
2021/04/28 05:17:49;;;;;;;8.10;5.73;;;;;6.70;99946.00;;;;10521149;28;20615;-72
2021/04/28 05:22:51;;;;;;;12.67;5.73;;;;;7.10;99948.00;;;;10522431;28;20201;-72
2021/04/28 05:28:18;;;;;;;7.00;5.40;;;;;7.60;99942.00;;;;10493462;28;20200;-73
2021/04/28 05:33:20;;;;;;;7.30;6.07;;;;;7.80;99951.00;;;;10522977;28;20310;-72
2021/04/28 05:38:21;;;;;;;8.50;5.90;;;;;7.90;99946.00;;;;10491690;28;20205;-73
2021/04/28 05:43:23;;;;;;;7.57;6.07;;;;;8.30;99941.00;;;;10511953;28;20277;-73
2021/04/28 05:48:24;;;;;;;7.50;6.77;;;;;9.10;99944.00;;;;10556154;28;20931;-73
2021/04/28 05:53:25;;;;;;;11.90;6.87;;;;;9.70;99947.00;;;;10505571;28;20189;-73
2021/04/28 05:58:27;;;;;;;11.53;6.20;;;;;9.90;99952.00;;;;10522799;28;20197;-73
2021/04/28 06:03:29;;;;;;;8.17;7.20;;;;;10.50;99953.00;;;;10498454;28;20236;-73
2021/04/28 06:08:30;;;;;;;11.07;6.00;;;;;10.90;99945.00;;;;10496853;28;20221;-73
2021/04/28 06:13:31;;;;;;;12.17;7.30;;;;;10.70;99945.00;;;;10533165;28;20200;-73
2021/04/28 06:18:33;;;;;;;8.07;7.00;;;;;11.00;99945.00;;;;10521192;28;20226;-72
2021/04/28 06:23:36;;;;;;;8.57;6.50;;;;;12.00;99937.00;;;;10488729;28;20551;-73
2021/04/28 06:28:37;;;;;;;12.57;6.97;;;;;12.30;99936.00;;;;10541284;28;20267;-73
2021/04/28 06:33:42;;;;;;;11.53;6.80;;;;;12.30;99935.00;;;;10495554;28;20205;-74
2021/04/28 06:38:44;;;;;;;8.17;7.07;;;;;12.70;99929.00;;;;10504097;28;20283;-74
2021/04/28 06:43:45;;;;;;;11.93;7.67;;;;;12.60;99925.00;;;;10520941;28;20262;-74
2021/04/28 06:48:50;;;;;;;10.63;7.50;;;;;12.60;99920.00;;;;10533736;28;20201;-73
2021/04/28 06:53:52;;;;;;;11.90;7.10;;;;;13.20;99927.00;;;;10469055;28;20181;-74
2021/04/28 06:58:53;;;;;;;12.77;7.67;;;;;13.90;99926.00;;;;10501176;28;20193;-74
2021/04/28 07:03:54;;;;;;;8.50;6.90;;;;;14.00;99929.00;;;;10526847;28;20254;-73
2021/04/28 07:08:56;;;;;;;10.13;7.77;;;;;14.20;99932.00;;;;10501756;28;20299;-73
2021/04/28 07:13:57;;;;;;;11.53;7.10;;;;;14.40;99932.00;;;;10537252;28;20242;-73
2021/04/28 07:18:59;;;;;;;9.70;7.93;;;;;14.60;99929.00;;;;10485095;28;20224;-73
2021/04/28 07:24:01;;;;;;;9.73;6.97;;;;;14.50;99927.00;;;;10533773;28;20201;-74
2021/04/28 07:29:03;;;;;;;13.70;8.03;;;;;14.80;99913.00;;;;10506660;28;20205;-74
2021/04/28 07:34:04;;;;;;;11.23;7.47;;;;;15.30;99914.00;;;;10506904;28;20200;-74
2021/04/28 07:39:07;;;;;;;13.90;7.77;;;;;15.90;99914.00;;;;10506884;28;20201;-74
2021/04/28 07:44:08;;;;;;;14.60;8.47;;;;;16.10;99900.00;;;;10536178;28;20282;-74
2021/04/28 07:49:09;;;;;;;10.50;8.33;;;;;16.40;99892.00;;;;10502371;28;20645;-74
2021/04/28 07:54:11;;;;;;;14.87;8.70;;;;;17.00;99889.00;;;;10539721;28;20196;-74
2021/04/28 07:59:13;;;;;;;12.17;7.63;;;;;17.50;99888.00;;;;10502726;28;20259;-74
2021/04/28 08:04:16;;;;;;;14.17;8.40;;;;;17.90;99887.00;;;;10504636;28;20205;-74
2021/04/28 08:09:18;;;;;;;13.20;9.07;;;;;18.10;99884.00;;;;10525515;28;20651;-74
2021/04/28 08:14:19;;;;;;;12.97;8.87;;;;;18.60;99879.00;;;;10544693;28;20219;-74
2021/04/28 08:19:20;;;;;;;11.67;8.97;;;;;18.70;99893.00;;;;10519793;28;20648;-73
2021/04/28 08:24:23;;;;;;;12.07;9.43;;;;;18.50;99892.00;;;;10524912;28;20208;-74
2021/04/28 08:29:25;;;;;;;12.53;9.27;;;;;17.80;99890.00;;;;10492027;28;20239;-73
2021/04/28 08:34:27;;;;;;;11.50;8.83;;;;;18.10;99889.00;;;;10546094;28;20185;-74
2021/04/28 08:39:28;;;;;;;12.30;9.93;;;;;18.70;99882.00;;;;10487154;28;20193;-74
2021/04/28 08:44:30;;;;;;;13.10;9.53;;;;;19.10;99893.00;;;;10481163;28;20214;-74
2021/04/28 08:49:32;;;;;;;14.17;10.10;;;;;19.60;99889.00;;;;10501381;28;20255;-74
2021/04/28 08:54:38;;;;;;;17.33;10.18;;;;;19.70;99882.00;;;;10517024;28;20272;-74
2021/04/28 08:59:40;;;;;;;12.77;10.18;;;;;20.00;99878.00;;;;10478124;28;20247;-74
2021/04/28 09:05:07;;;;;;;16.90;10.90;;;;;19.70;99875.00;;;;10458389;28;20217;-76
2021/04/28 09:10:17;;;;;;;13.80;11.75;;;;;20.50;99863.00;;;;10497418;28;20189;-73
2021/04/28 09:15:33;;;;;;;14.18;11.90;;;;;21.50;99856.00;;;;10541805;28;20226;-72
2021/04/28 09:20:37;;;;;;;12.70;11.38;;;;;21.80;99861.00;;;;10507141;28;20193;-72
2021/04/28 09:25:51;;;;;;;16.77;10.88;;;;;21.90;99861.00;;;;10508055;28;20205;-71
2021/04/28 09:31:08;;;;;;;15.52;11.63;;;;;22.00;99865.00;;;;10520111;28;20532;-71
2021/04/28 09:36:13;;;;;;;12.63;11.40;;;;;22.40;99857.00;;;;10541118;28;20189;-72
2021/04/28 09:41:33;;;;;;;16.17;10.35;;;;;21.90;99857.00;;;;10526303;28;20205;-72
2021/04/28 09:46:35;;;;;;;13.82;11.15;;;;;21.60;99853.00;;;;10540828;28;20223;-72
2021/04/28 09:51:38;;;;;;;14.05;10.95;;;;;22.20;99850.00;;;;10512633;28;20203;-72
2021/04/28 09:56:41;;;;;;;10.85;9.75;;;;;22.70;99845.00;;;;10496284;28;20259;-72
2021/04/28 10:01:42;;;;;;;15.20;10.23;;;;;23.00;99839.00;;;;10535224;28;20197;-72
2021/04/28 10:06:48;;;;;;;13.15;10.63;;;;;23.00;99830.00;;;;10520475;28;20219;-72
2021/04/28 10:11:50;;;;;;;13.55;10.98;;;;;23.00;99831.00;;;;10535767;28;20253;-72
2021/04/28 10:16:54;;;;;;;12.10;10.88;;;;;23.50;99825.00;;;;10513908;28;20184;-72
2021/04/28 10:22:07;;;;;;;17.48;11.38;;;;;23.20;99819.00;;;;10511734;28;20206;-74
2021/04/28 10:27:11;;;;;;;15.05;11.75;;;;;23.60;99800.00;;;;10514424;28;20644;-74
2021/04/28 10:32:14;;;;;;;15.50;11.95;;;;;23.50;99804.00;;;;10473105;28;20197;-73
2021/04/28 10:37:19;;;;;;;15.32;11.93;;;;;23.60;99792.00;;;;10496959;28;20260;-73
2021/04/28 10:42:36;;;;;;;14.20;10.95;;;;;23.90;99788.00;;;;10516201;28;20204;-73
2021/04/28 10:47:44;;;;;;;19.08;11.35;;;;;23.90;99785.00;;;;10499129;28;20220;-73
2021/04/28 10:52:56;;;;;;;15.30;12.85;;;;;23.90;99780.00;;;;10539940;28;20232;-73
2021/04/28 10:58:03;;;;;;;17.10;12.43;;;;;24.40;99773.00;;;;10500986;28;20204;-73
2021/04/28 11:03:28;;;;;;;14.02;12.50;;;;;24.50;99767.00;;;;10542940;28;20300;-73
2021/04/28 11:08:29;;;;;;;15.82;12.23;;;;;24.80;99764.00;;;;10543469;28;20224;-73
2021/04/28 11:13:31;;;;;;;16.95;12.32;;;;;25.00;99756.00;;;;10525837;28;20223;-74
2021/04/28 11:18:37;;;;;;;14.27;12.15;;;;;25.00;99760.00;;;;10509528;28;20245;-73
2021/04/28 11:24:11;;;;;;;17.45;12.35;;;;;25.20;99758.00;;;;10509417;28;20213;-74
2021/04/28 11:29:12;;;;;;;15.30;12.88;;;;;25.60;99754.00;;;;10544335;28;20234;-74
2021/04/28 11:34:26;;;;;;;13.75;12.35;;;;;25.80;99746.00;;;;10544507;28;20192;-75
2021/04/28 11:39:38;;;;;;;17.48;13.02;;;;;25.60;99740.00;;;;10498289;28;20242;-74
2021/04/28 11:44:54;;;;;;;18.88;13.25;;;;;25.40;99751.00;;;;10543973;28;20602;-75
2021/04/28 11:49:56;;;;;;;13.88;12.30;;;;;25.90;99745.00;;;;10491984;28;20208;-74
2021/04/28 11:54:59;;;;;;;21.83;13.55;;;;;26.50;99735.00;;;;10518264;28;20702;-74
2021/04/28 12:00:08;;;;;;;17.55;13.45;;;;;26.50;99730.00;;;;10470938;28;20236;-74
2021/04/28 12:05:10;;;;;;;17.92;12.57;;;;;26.50;99728.00;;;;10537663;28;20292;-75
2021/04/28 12:10:15;;;;;;;19.70;14.02;;;;;26.00;99733.00;;;;10477313;28;20748;-74
2021/04/28 12:15:16;;;;;;;17.42;13.80;;;;;25.80;99727.00;;;;10509642;28;20190;-74
2021/04/28 12:20:19;;;;;;;18.52;13.93;;;;;26.10;99717.00;;;;10495917;28;20197;-74
2021/04/28 12:25:20;;;;;;;17.00;12.82;;;;;26.00;99706.00;;;;10492406;28;20197;-74
2021/04/28 12:30:24;;;;;;;16.00;13.65;;;;;26.20;99701.00;;;;10495203;28;20193;-74
2021/04/28 12:35:37;;;;;;;15.77;13.23;;;;;26.70;99687.00;;;;10500743;28;20189;-74
2021/04/28 12:40:58;;;;;;;15.15;13.25;;;;;26.80;99693.00;;;;10486570;28;20212;-75
2021/04/28 12:46:11;;;;;;;15.43;13.80;;;;;26.80;99684.00;;;;10497533;28;20243;-74
2021/04/28 12:51:15;;;;;;;17.15;13.25;;;;;27.20;99679.00;;;;10528733;28;20235;-74
2021/04/28 12:56:17;;;;;;;14.93;12.43;;;;;27.20;99671.00;;;;10520773;28;20193;-75
2021/04/28 13:01:23;;;;;;;16.23;13.07;;;;;26.00;99678.00;;;;10506795;28;20663;-74
2021/04/28 13:06:29;;;;;;;13.50;12.10;;;;;24.90;99669.00;;;;10495108;28;20224;-74
2021/04/28 13:11:41;;;;;;;17.00;14.10;;;;;26.20;99660.00;;;;10499029;28;20589;-74
2021/04/28 13:16:53;;;;;;;17.50;13.43;;;;;27.50;99650.00;;;;10474432;28;20668;-74
2021/04/28 13:22:03;;;;;;;14.20;12.55;;;;;27.90;99651.00;;;;10508753;28;20181;-74
2021/04/28 13:27:17;;;;;;;15.65;10.98;;;;;30.20;99650.00;;;;10528087;28;20186;-74
2021/04/28 13:32:38;;;;;;;12.65;10.93;;;;;30.20;99641.00;;;;10491985;28;20197;-74
2021/04/28 13:37:39;;;;;;;11.65;9.70;;;;;28.90;99637.00;;;;10522617;28;20299;-74
2021/04/28 13:42:41;;;;;;;12.55;9.82;;;;;27.90;99638.00;;;;10511062;28;20299;-75
2021/04/28 13:47:42;;;;;;;16.00;11.95;;;;;29.00;99632.00;;;;10519814;28;20200;-75
2021/04/28 13:52:43;;;;;;;17.70;13.32;;;;;25.90;99631.00;;;;10520531;28;20668;-74
2021/04/28 13:57:45;;;;;;;15.30;13.70;;;;;27.20;99621.00;;;;10521151;28;20196;-73
2021/04/28 14:02:47;;;;;;;16.73;12.63;;;;;27.80;99636.00;;;;10515507;28;20205;-73
2021/04/28 14:07:49;;;;;;;14.52;10.57;;;;;25.60;99620.00;;;;10548231;28;20217;-73
2021/04/28 14:12:50;;;;;;;13.23;10.73;;;;;25.10;99623.00;;;;10527065;28;20299;-72
2021/04/28 14:17:51;;;;;;;11.60;9.82;;;;;28.70;99596.00;;;;10537496;28;20232;-73
2021/04/28 14:22:55;;;;;;;16.08;11.40;;;;;27.00;99604.00;;;;10523920;28;20207;-75
2021/04/28 14:27:56;;;;;;;14.32;10.07;;;;;28.80;99597.00;;;;10501845;28;20235;-73
2021/04/28 14:32:57;;;;;;;16.38;11.43;;;;;28.40;99606.00;;;;10485788;28;20193;-73
2021/04/28 14:37:59;;;;;;;14.48;11.25;;;;;29.90;99600.00;;;;10531759;28;20192;-73
2021/04/28 14:43:00;;;;;;;14.15;10.88;;;;;29.70;99597.00;;;;10492555;28;20205;-72
2021/04/28 14:48:02;;;;;;;15.18;11.07;;;;;31.20;99591.00;;;;10501616;28;20193;-74
2021/04/28 14:53:03;;;;;;;15.60;11.85;;;;;27.70;99589.00;;;;10496832;28;20544;-73
2021/04/28 14:58:05;;;;;;;16.15;12.40;;;;;27.80;99581.00;;;;10510716;28;20196;-73
2021/04/28 15:03:06;;;;;;;13.75;11.15;;;;;28.70;99570.00;;;;10505660;28;20300;-74
2021/04/28 15:08:08;;;;;;;13.32;10.85;;;;;25.20;99577.00;;;;10496607;28;20304;-74
2021/04/28 15:13:11;;;;;;;14.77;11.55;;;;;24.40;99573.00;;;;10476794;28;20189;-74
2021/04/28 15:18:17;;;;;;;15.15;11.65;;;;;23.90;99568.00;;;;10519942;28;20189;-74
2021/04/28 15:23:19;;;;;;;18.48;10.38;;;;;23.70;99570.00;;;;10537421;28;20189;-74
2021/04/28 15:28:21;;;;;;;13.52;11.68;;;;;24.00;99560.00;;;;10502134;28;20204;-74
2021/04/28 15:33:22;;;;;;;14.48;11.85;;;;;24.00;99566.00;;;;10519275;28;20194;-74
2021/04/28 15:38:24;;;;;;;15.95;11.35;;;;;23.30;99560.00;;;;10502438;28;20675;-74
2021/04/28 15:43:25;;;;;;;13.60;10.95;;;;;23.20;99567.00;;;;10493813;28;20304;-74
2021/04/28 15:48:26;;;;;;;13.18;11.27;;;;;23.40;99560.00;;;;10494412;28;20283;-74
2021/04/28 15:53:28;;;;;;;15.88;11.15;;;;;23.00;99553.00;;;;10528688;28;20177;-74
2021/04/28 15:58:29;;;;;;;17.08;12.02;;;;;22.60;99556.00;;;;10545063;28;20258;-74
2021/04/28 16:03:31;;;;;;;17.52;12.45;;;;;22.30;99555.00;;;;10526224;28;20216;-74
2021/04/28 16:08:33;;;;;;;14.20;10.88;;;;;21.80;99557.00;;;;10492546;28;20221;-74
2021/04/28 16:13:34;;;;;;;22.98;17.00;;;;;21.90;99553.00;;;;10525862;28;20644;-74
2021/04/28 16:18:36;;;;;;;16.45;11.07;;;;;22.00;99556.00;;;;10543107;28;20192;-74
2021/04/28 16:23:37;;;;;;;16.02;12.85;;;;;21.80;99534.00;;;;10559273;28;20269;-74
2021/04/28 16:28:39;;;;;;;24.10;16.98;;;;;21.40;99538.00;;;;10508692;28;20196;-74
2021/04/28 16:33:40;;;;;;;27.17;17.13;;;;;21.70;99548.00;;;;10525839;28;20562;-74
2021/04/28 16:38:53;;;;;;;26.77;18.27;;;;;21.70;99554.00;;;;10493443;28;20189;-74
2021/04/28 16:43:55;;;;;;;25.92;19.02;;;;;21.40;99546.00;;;;10503054;28;20251;-74
2021/04/28 16:48:56;;;;;;;23.92;20.15;;;;;21.40;99547.00;;;;10483214;28;20197;-74
2021/04/28 16:53:58;;;;;;;26.80;19.55;;;;;21.50;99552.00;;;;10505540;28;20654;-74
2021/04/28 16:58:59;;;;;;;27.20;17.73;;;;;21.30;99543.00;;;;10541710;28;20578;-74
2021/04/28 17:04:01;;;;;;;26.30;18.25;;;;;20.90;99546.00;;;;10524499;28;20197;-74
2021/04/28 17:09:02;;;;;;;23.67;17.98;;;;;20.50;99550.00;;;;10494962;28;20317;-72
2021/04/28 17:14:04;;;;;;;25.73;18.80;;;;;20.10;99543.00;;;;10511411;28;20201;-73
2021/04/28 17:19:05;;;;;;;28.75;18.55;;;;;20.00;99537.00;;;;10506915;28;20644;-72
2021/04/28 17:24:07;;;;;;;22.58;18.63;;;;;19.80;99540.00;;;;10541593;28;20272;-73
2021/04/28 17:29:08;;;;;;;23.58;18.05;;;;;19.80;99541.00;;;;10523946;28;20242;-73
2021/04/28 17:34:15;;;;;;;23.80;17.58;;;;;19.90;99538.00;;;;10541512;28;20189;-73
2021/04/28 17:39:17;;;;;;;26.83;17.92;;;;;19.90;99537.00;;;;10506131;28;20204;-73
2021/04/28 17:44:18;;;;;;;22.58;17.30;;;;;19.70;99548.00;;;;10540358;28;20217;-73
2021/04/28 17:49:20;;;;;;;24.63;16.52;;;;;19.50;99551.00;;;;10506611;28;20192;-74
2021/04/28 17:54:21;;;;;;;24.52;17.52;;;;;19.10;99543.00;;;;10505709;28;20202;-74
2021/04/28 17:59:24;;;;;;;21.33;16.23;;;;;18.90;99549.00;;;;10505025;28;20291;-74
2021/04/28 18:04:26;;;;;;;24.10;17.50;;;;;18.80;99550.00;;;;10488326;28;20193;-74
2021/04/28 18:09:27;;;;;;;24.93;16.27;;;;;18.30;99555.00;;;;10522141;28;20204;-74
2021/04/28 18:14:28;;;;;;;22.37;17.10;;;;;17.80;99554.00;;;;10504871;28;20204;-74
2021/04/28 18:19:31;;;;;;;18.07;14.83;;;;;17.30;99563.00;;;;10540294;28;20246;-74
2021/04/28 18:24:33;;;;;;;21.70;15.47;;;;;16.90;99560.00;;;;10554714;28;20282;-74
2021/04/28 18:29:34;;;;;;;19.30;14.80;;;;;16.60;99563.00;;;;10500266;28;20255;-73
2021/04/28 18:34:35;;;;;;;19.23;14.67;;;;;16.30;99554.00;;;;10512344;28;20204;-73
2021/04/28 18:39:37;;;;;;;21.67;15.90;;;;;16.10;99564.00;;;;10513284;28;20221;-73
2021/04/28 18:44:38;;;;;;;20.90;15.13;;;;;15.80;99566.00;;;;10505015;28;20606;-73
2021/04/28 18:49:40;;;;;;;23.50;15.37;;;;;15.60;99557.00;;;;10504007;28;20188;-73
2021/04/28 18:54:42;;;;;;;20.57;14.63;;;;;15.40;99563.00;;;;10503846;28;20204;-73
2021/04/28 18:59:44;;;;;;;19.80;15.07;;;;;15.20;99556.00;;;;10504017;28;20216;-73
2021/04/28 19:04:45;;;;;;;22.57;14.13;;;;;15.00;99571.00;;;;10519873;28;20221;-73
2021/04/28 19:09:47;;;;;;;20.17;14.97;;;;;14.80;99576.00;;;;10520222;28;20532;-73
2021/04/28 19:14:48;;;;;;;21.47;13.87;;;;;14.70;99572.00;;;;10520879;28;20590;-73
2021/04/28 19:19:51;;;;;;;18.10;14.10;;;;;14.60;99578.00;;;;10503467;28;20199;-73
2021/04/28 19:24:53;;;;;;;25.67;14.80;;;;;14.50;99576.00;;;;10508086;28;20265;-73
2021/04/28 19:29:55;;;;;;;18.73;13.90;;;;;14.40;99589.00;;;;10544809;28;20934;-73
2021/04/28 19:34:56;;;;;;;20.70;14.03;;;;;14.40;99601.00;;;;10546272;28;20181;-73
2021/04/28 19:39:58;;;;;;;15.90;12.07;;;;;14.40;99609.00;;;;10561906;28;20215;-74
2021/04/28 19:45:00;;;;;;;20.43;13.47;;;;;14.40;99609.00;;;;10511511;28;20239;-73
2021/04/28 19:50:02;;;;;;;17.40;12.90;;;;;14.30;99600.00;;;;10494701;28;20185;-74
2021/04/28 19:55:05;;;;;;;18.17;13.17;;;;;14.10;99605.00;;;;10545852;28;20189;-74
2021/04/28 20:00:07;;;;;;;18.37;12.87;;;;;13.90;99599.00;;;;10544833;28;20193;-73
2021/04/28 20:05:09;;;;;;;19.37;12.53;;;;;13.70;99593.00;;;;10469712;28;20225;-73
2021/04/28 20:10:11;;;;;;;18.20;12.83;;;;;13.50;99581.00;;;;10521902;28;20189;-74
2021/04/28 20:15:13;;;;;;;16.73;12.53;;;;;13.40;99571.00;;;;10509699;28;20238;-74
2021/04/28 20:20:15;;;;;;;17.77;12.60;;;;;13.20;99562.00;;;;10526562;28;20682;-73
2021/04/28 20:25:17;;;;;;;20.80;12.53;;;;;13.20;99567.00;;;;10525218;28;20253;-73
2021/04/28 20:30:19;;;;;;;19.10;12.43;;;;;13.30;99572.00;;;;10489735;28;20245;-73
2021/04/28 20:35:22;;;;;;;20.97;12.23;;;;;13.40;99578.00;;;;10507871;28;20185;-73
2021/04/28 20:40:24;;;;;;;16.33;12.33;;;;;13.40;99564.00;;;;10508516;28;20238;-74
2021/04/28 20:45:25;;;;;;;16.67;11.63;;;;;13.30;99576.00;;;;10508776;28;20227;-73
2021/04/28 20:50:27;;;;;;;16.37;12.47;;;;;13.30;99576.00;;;;10525714;28;20193;-73
2021/04/28 20:55:29;;;;;;;21.67;12.17;;;;;13.30;99568.00;;;;10525483;28;20224;-73
2021/04/28 21:00:34;;;;;;;19.73;13.03;;;;;13.20;99555.00;;;;10543183;28;20184;-73
2021/04/28 21:05:35;;;;;;;15.77;12.13;;;;;13.20;99555.00;;;;10508001;28;20220;-73
2021/04/28 21:10:38;;;;;;;18.27;12.43;;;;;13.10;99553.00;;;;10485635;28;20343;-73
2021/04/28 21:15:41;;;;;;;15.43;12.33;;;;;13.00;99574.00;;;;10507351;28;20193;-73
2021/04/28 21:20:42;;;;;;;21.93;13.13;;;;;13.00;99569.00;;;;10542324;28;20532;-73
2021/04/28 21:25:45;;;;;;;30.33;14.07;;;;;12.90;99574.00;;;;10543856;28;20208;-73
2021/04/28 21:30:46;;;;;;;19.70;13.43;;;;;12.90;99592.00;;;;10549098;28;20202;-73
2021/04/28 21:35:48;;;;;;;18.00;13.70;;;;;12.80;99639.00;;;;10565871;28;20184;-73
2021/04/28 21:40:49;;;;;;;17.93;13.07;;;;;12.80;99639.00;;;;10583377;28;20233;-73
2021/04/28 21:45:53;;;;;;;21.23;13.07;;;;;12.90;99628.00;;;;10543605;28;20220;-74
2021/04/28 21:50:55;;;;;;;16.97;12.57;;;;;12.90;99644.00;;;;10506522;28;20193;-73
2021/04/28 21:55:56;;;;;;;18.83;12.27;;;;;12.90;99622.00;;;;10527525;28;20698;-73
2021/04/28 22:00:58;;;;;;;20.97;12.37;;;;;12.90;99626.00;;;;10547571;28;20663;-73
2021/04/28 22:05:59;;;;;;;16.27;12.13;;;;;12.80;99619.00;;;;10563797;28;20269;-73
2021/04/28 22:11:01;;;;;;;19.10;12.10;;;;;12.70;99600.00;;;;10546665;28;20628;-73
2021/04/28 22:16:03;;;;;;;21.00;12.50;;;;;12.70;99612.00;;;;10525950;28;20541;-73
2021/04/28 22:21:04;;;;;;;19.37;12.27;;;;;12.60;99611.00;;;;10471465;28;20250;-73
2021/04/28 22:26:05;;;;;;;17.37;12.23;;;;;12.40;99616.00;;;;10543773;28;20250;-73
2021/04/28 22:31:09;;;;;;;19.43;12.43;;;;;12.30;99626.00;;;;10545818;28;20241;-73
2021/04/28 22:36:10;;;;;;;18.83;11.43;;;;;12.30;99624.00;;;;10563335;28;20180;-73
2021/04/28 22:41:12;;;;;;;18.10;12.57;;;;;12.20;99616.00;;;;10545059;28;20209;-73
2021/04/28 22:46:13;;;;;;;18.40;13.47;;;;;12.10;99622.00;;;;10487239;28;20228;-73
2021/04/28 22:51:16;;;;;;;18.80;12.57;;;;;12.10;99623.00;;;;10503670;28;20200;-73
2021/04/28 22:56:17;;;;;;;18.20;12.20;;;;;12.00;99619.00;;;;10504301;28;20238;-72
2021/04/28 23:01:19;;;;;;;18.13;11.77;;;;;12.00;99613.00;;;;10516230;28;20189;-74
2021/04/28 23:06:20;;;;;;;17.27;13.40;;;;;11.90;99616.00;;;;10517907;28;20220;-73
2021/04/28 23:11:21;;;;;;;19.23;12.67;;;;;11.90;99619.00;;;;10517189;28;20935;-73
2021/04/28 23:16:23;;;;;;;20.00;12.53;;;;;11.80;99629.00;;;;10534574;28;20196;-73
2021/04/28 23:21:24;;;;;;;16.77;12.83;;;;;11.70;99631.00;;;;10517838;28;20188;-73
2021/04/28 23:26:25;;;;;;;16.43;11.13;;;;;11.70;99637.00;;;;10516503;28;20667;-72
2021/04/28 23:31:27;;;;;;;16.00;12.33;;;;;11.70;99652.00;;;;10551975;28;20234;-72
2021/04/28 23:36:28;;;;;;;15.67;11.63;;;;;11.70;99646.00;;;;10516750;28;20280;-72
2021/04/28 23:41:29;;;;;;;16.53;12.23;;;;;11.70;99647.00;;;;10533199;28;20670;-72
2021/04/28 23:46:32;;;;;;;16.17;11.37;;;;;11.70;99642.00;;;;10516172;28;20288;-72
2021/04/28 23:51:34;;;;;;;16.40;10.93;;;;;11.70;99641.00;;;;10533539;28;20678;-72
2021/04/28 23:56:35;;;;;;;20.77;14.23;;;;;11.70;99644.00;;;;10549588;28;20223;-72
